Time;durP1;ratioP1;P1;durP2;ratioP2;P2;SDS_P1;SDS_P2;PMS_P1;PMS_P2;Temp;Humidity;BMP_temperature;BMP_pressure;BME280_temperature;BME280_humidity;BME280_pressure;Samples;Min_cycle;Max_cycle;Signal;HPM_P1;HPM_P2
2021/08/28 00:00:21;;;;;;;15.10;8.63;;;17.00;99.90;;;;;;5069739;28;20104;-75
2021/08/28 00:02:47;;;;;;;16.33;7.55;;;17.00;99.90;;;;;;5071082;28;20203;-75
2021/08/28 00:05:13;;;;;;;15.38;6.78;;;17.00;99.90;;;;;;5069552;28;20095;-75
2021/08/28 00:07:39;;;;;;;13.60;6.60;;;17.00;99.90;;;;;;5072201;28;20468;-75
2021/08/28 00:10:07;;;;;;;15.50;7.05;;;17.00;99.90;;;;;;5069970;28;20411;-75
2021/08/28 00:12:33;;;;;;;13.48;6.03;;;17.00;99.90;;;;;;5065921;28;20033;-76
2021/08/28 00:15:00;;;;;;;18.13;6.05;;;17.00;99.90;;;;;;5060400;28;20123;-75
2021/08/28 00:17:32;;;;;;;13.80;6.20;;;17.00;99.90;;;;;;5071169;28;20032;-76
2021/08/28 00:20:09;;;;;;;;;;;17.00;99.90;;;;;;5070312;28;20024;-76
2021/08/28 00:22:35;;;;;;;17.15;6.15;;;17.10;99.90;;;;;;5069523;28;20330;-75
2021/08/28 00:25:01;;;;;;;16.98;6.32;;;17.10;99.90;;;;;;5061632;28;20580;-75
2021/08/28 00:27:27;;;;;;;15.00;5.97;;;17.10;99.90;;;;;;5073469;28;20111;-75
2021/08/28 00:29:52;;;;;;;19.42;6.70;;;17.10;99.90;;;;;;5057479;28;20107;-75
2021/08/28 00:32:18;;;;;;;20.02;6.45;;;17.10;99.90;;;;;;5073774;28;20052;-75
2021/08/28 00:34:43;;;;;;;13.60;6.03;;;17.10;99.90;;;;;;5073408;28;20036;-76
2021/08/28 00:37:10;;;;;;;19.17;6.15;;;17.10;99.90;;;;;;5068221;28;20032;-75
2021/08/28 00:39:35;;;;;;;9.48;5.68;;;17.10;99.90;;;;;;5053948;28;20031;-76
2021/08/28 00:42:01;;;;;;;16.13;5.97;;;17.10;99.90;;;;;;5073309;28;20473;-76
2021/08/28 00:44:27;;;;;;;15.27;6.80;;;17.20;99.90;;;;;;5076954;28;20028;-75
2021/08/28 00:46:55;;;;;;;16.63;6.82;;;17.20;99.90;;;;;;5069413;28;20132;-75
2021/08/28 00:49:21;;;;;;;13.68;7.00;;;17.20;99.90;;;;;;5073591;28;20027;-76
2021/08/28 00:51:47;;;;;;;13.32;5.80;;;17.20;99.90;;;;;;5077578;28;20036;-75
2021/08/28 00:54:13;;;;;;;13.27;5.57;;;17.20;99.90;;;;;;5075331;28;20032;-75
2021/08/28 00:56:40;;;;;;;13.38;5.65;;;17.20;99.90;;;;;;5073209;28;20039;-75
2021/08/28 00:59:07;;;;;;;14.77;6.40;;;17.30;99.90;;;;;;5070274;28;20097;-75
2021/08/28 01:01:38;;;;;;;15.25;6.78;;;17.30;99.90;;;;;;5060852;28;20078;-75
2021/08/28 01:04:06;;;;;;;15.75;6.22;;;17.30;99.90;;;;;;5050108;28;20032;-75
2021/08/28 01:06:59;;;;;;;15.60;6.43;;;17.30;99.90;;;;;;5072833;28;20032;-75
2021/08/28 01:09:30;;;;;;;15.57;6.13;;;17.30;99.90;;;;;;5077024;28;20020;-75
2021/08/28 01:12:27;;;;;;;16.13;6.22;;;17.30;99.90;;;;;;5074434;28;20120;-76
2021/08/28 01:15:00;;;;;;;14.85;6.43;;;17.30;99.90;;;;;;5059504;28;20119;-75
2021/08/28 01:17:28;;;;;;;10.50;6.57;;;17.30;99.90;;;;;;5050980;28;20062;-75
2021/08/28 01:20:05;;;;;;;19.63;7.35;;;17.30;99.90;;;;;;5072537;28;20024;-76
2021/08/28 01:22:32;;;;;;;18.63;7.85;;;17.30;99.90;;;;;;5072120;28;20111;-76
2021/08/28 01:24:58;;;;;;;20.23;8.43;;;17.30;99.90;;;;;;5069460;28;20025;-76
2021/08/28 01:27:41;;;;;;;15.13;7.20;;;17.30;99.90;;;;;;5068312;28;20025;-76
2021/08/28 01:30:07;;;;;;;;;;;17.30;99.90;;;;;;5050669;28;20021;-76
2021/08/28 01:32:33;;;;;;;15.48;8.15;;;17.20;99.90;;;;;;5053993;28;19912;-77
2021/08/28 01:35:00;;;;;;;15.50;6.43;;;17.30;99.90;;;;;;5069404;28;20035;-76
2021/08/28 01:37:27;;;;;;;18.10;8.85;;;17.30;99.90;;;;;;5053965;28;20497;-76
2021/08/28 01:39:56;;;;;;;14.13;6.95;;;17.30;99.90;;;;;;5072708;28;20178;-76
2021/08/28 01:42:24;;;;;;;13.60;7.55;;;17.20;99.90;;;;;;5073752;28;20024;-75
2021/08/28 01:44:51;;;;;;;14.40;7.43;;;17.30;99.90;;;;;;5067026;28;20029;-76
2021/08/28 01:47:18;;;;;;;14.77;7.18;;;17.30;99.90;;;;;;5069170;28;20027;-76
2021/08/28 01:49:46;;;;;;;16.55;7.68;;;17.30;99.90;;;;;;5064405;28;20032;-75
2021/08/28 01:52:13;;;;;;;17.90;7.55;;;17.30;99.90;;;;;;5049214;28;20055;-76
2021/08/28 01:54:39;;;;;;;15.35;7.75;;;17.30;99.90;;;;;;5070494;28;20048;-76
2021/08/28 01:57:05;;;;;;;16.05;7.10;;;17.30;99.90;;;;;;5073233;28;20122;-76
2021/08/28 01:59:31;;;;;;;13.38;7.57;;;17.30;99.90;;;;;;5075338;28;20034;-75
2021/08/28 02:01:57;;;;;;;20.27;8.65;;;17.30;99.90;;;;;;5067649;28;20733;-76
2021/08/28 02:04:22;;;;;;;19.27;8.00;;;17.30;99.90;;;;;;5072370;28;20032;-76
2021/08/28 02:07:13;;;;;;;16.10;8.52;;;17.30;99.90;;;;;;5069276;28;20028;-76
2021/08/28 02:09:53;;;;;;;14.85;8.10;;;17.30;99.90;;;;;;5065244;28;20082;-76
2021/08/28 02:12:28;;;;;;;19.65;7.82;;;17.30;99.90;;;;;;5071715;28;20033;-76
2021/08/28 02:14:59;;;;;;;12.73;8.23;;;17.30;99.90;;;;;;5071894;28;20032;-76
2021/08/28 02:17:30;;;;;;;17.08;8.23;;;17.30;99.90;;;;;;5068507;28;20033;-76
2021/08/28 02:20:03;;;;;;;14.93;8.02;;;17.30;99.90;;;;;;5070046;28;20044;-76
2021/08/28 02:22:33;;;;;;;19.80;8.48;;;17.30;99.90;;;;;;5057362;28;20441;-76
2021/08/28 02:25:24;;;;;;;17.35;8.65;;;17.20;99.90;;;;;;5048367;28;20499;-76
2021/08/28 02:27:55;;;;;;;21.10;10.25;;;17.20;99.90;;;;;;5070096;28;20108;-76
2021/08/28 02:30:21;;;;;;;19.13;8.75;;;17.20;99.90;;;;;;5068036;28;20082;-75
2021/08/28 02:32:52;;;;;;;17.70;8.68;;;17.20;99.90;;;;;;5061065;28;20101;-76
2021/08/28 02:35:19;;;;;;;19.27;9.07;;;17.20;99.90;;;;;;5060397;28;20037;-75
2021/08/28 02:37:46;;;;;;;19.80;8.80;;;17.20;99.90;;;;;;5060044;28;20040;-75
2021/08/28 02:40:14;;;;;;;19.38;9.27;;;17.20;99.90;;;;;;5056772;28;20021;-75
2021/08/28 02:42:44;;;;;;;12.90;8.63;;;17.30;99.90;;;;;;5057685;28;20025;-75
2021/08/28 02:45:15;;;;;;;17.60;8.30;;;17.20;99.90;;;;;;5056734;28;20100;-75
2021/08/28 02:47:42;;;;;;;17.20;8.73;;;17.20;99.90;;;;;;5062367;28;20052;-76
2021/08/28 02:50:09;;;;;;;14.95;8.32;;;17.20;99.90;;;;;;5060210;28;20028;-76
2021/08/28 02:52:36;;;;;;;19.73;9.90;;;17.20;99.90;;;;;;5058940;28;20087;-76
2021/08/28 02:55:02;;;;;;;16.33;7.90;;;17.20;99.90;;;;;;5063265;28;20037;-76
2021/08/28 02:57:31;;;;;;;15.13;8.02;;;17.30;99.90;;;;;;5063313;28;20470;-75
2021/08/28 02:59:57;;;;;;;16.27;8.77;;;17.30;99.90;;;;;;5058513;28;20035;-75
2021/08/28 03:02:24;;;;;;;17.48;8.48;;;17.20;99.90;;;;;;5059350;28;20041;-75
2021/08/28 03:04:50;;;;;;;16.95;8.98;;;17.20;99.90;;;;;;5059829;28;20487;-76
2021/08/28 03:07:18;;;;;;;18.17;8.15;;;17.20;99.90;;;;;;5059525;28;20488;-76
2021/08/28 03:09:45;;;;;;;19.90;8.52;;;17.20;99.90;;;;;;5055145;28;20107;-75
2021/08/28 03:12:11;;;;;;;22.63;8.95;;;17.20;99.90;;;;;;5064290;28;20020;-76
2021/08/28 03:14:37;;;;;;;18.77;9.00;;;17.20;99.90;;;;;;5045425;28;20515;-75
2021/08/28 03:17:05;;;;;;;16.58;10.02;;;17.10;99.90;;;;;;5058392;28;20369;-75
2021/08/28 03:19:32;;;;;;;20.08;10.52;;;17.10;99.90;;;;;;5061113;28;20026;-75
2021/08/28 03:22:00;;;;;;;16.48;8.95;;;17.20;99.90;;;;;;5061111;28;20078;-76
2021/08/28 03:24:28;;;;;;;15.30;9.73;;;17.10;99.90;;;;;;5065065;28;20094;-75
2021/08/28 03:26:56;;;;;;;19.52;8.75;;;17.20;99.90;;;;;;5060793;28;20017;-75
2021/08/28 03:29:23;;;;;;;17.55;9.10;;;17.20;99.90;;;;;;5058940;28;20089;-74
2021/08/28 03:31:51;;;;;;;19.98;9.48;;;17.20;99.90;;;;;;5069818;28;20477;-76
2021/08/28 03:34:18;;;;;;;20.10;10.18;;;17.20;99.90;;;;;;5065912;28;20473;-75
2021/08/28 03:36:44;;;;;;;15.90;9.30;;;17.10;99.90;;;;;;5063304;28;20025;-75
2021/08/28 03:39:10;;;;;;;19.02;8.73;;;17.20;99.90;;;;;;5069243;28;20027;-76
2021/08/28 03:41:38;;;;;;;22.00;9.45;;;17.20;99.90;;;;;;5067893;28;20024;-76
2021/08/28 03:44:04;;;;;;;21.08;9.65;;;17.20;99.90;;;;;;5060511;28;20035;-76
2021/08/28 03:46:32;;;;;;;15.88;8.50;;;17.20;99.90;;;;;;5063636;28;20107;-76
2021/08/28 03:48:57;;;;;;;19.00;10.15;;;17.30;99.90;;;;;;5063782;28;20020;-76
2021/08/28 03:51:23;;;;;;;19.45;8.65;;;17.30;99.90;;;;;;5074327;28;20384;-75
2021/08/28 03:53:49;;;;;;;14.88;8.25;;;17.30;99.90;;;;;;5072153;28;20040;-76
2021/08/28 03:56:17;;;;;;;21.02;10.38;;;17.30;99.90;;;;;;5069794;28;20473;-76
2021/08/28 03:58:43;;;;;;;20.77;8.50;;;17.30;99.90;;;;;;5071045;28;20041;-76
2021/08/28 04:01:09;;;;;;;22.10;8.85;;;17.30;99.90;;;;;;5067649;28;20377;-75
2021/08/28 04:03:34;;;;;;;19.55;9.18;;;17.30;99.90;;;;;;5056576;28;20027;-76
2021/08/28 04:06:00;;;;;;;16.23;8.85;;;17.30;99.90;;;;;;5058780;28;20048;-75
2021/08/28 04:08:25;;;;;;;20.75;9.32;;;17.40;99.90;;;;;;5070370;28;20028;-75
2021/08/28 04:10:51;;;;;;;21.40;10.27;;;17.40;99.90;;;;;;5071980;28;20025;-75
2021/08/28 04:13:17;;;;;;;17.75;9.27;;;17.40;99.90;;;;;;5073036;28;20063;-74
2021/08/28 04:15:42;;;;;;;23.63;10.00;;;17.40;99.90;;;;;;5068201;28;20469;-76
2021/08/28 04:18:09;;;;;;;17.77;9.25;;;17.40;99.90;;;;;;5070841;28;20044;-76
2021/08/28 04:20:34;;;;;;;16.67;8.18;;;17.40;99.90;;;;;;5062012;28;20489;-76
2021/08/28 04:23:00;;;;;;;17.20;8.98;;;17.40;99.90;;;;;;5078042;28;20055;-75
2021/08/28 04:25:26;;;;;;;14.93;8.50;;;17.40;99.90;;;;;;5074544;28;20396;-80
2021/08/28 04:27:52;;;;;;;19.20;9.63;;;17.40;99.90;;;;;;5069824;28;20025;-75
2021/08/28 04:30:18;;;;;;;24.63;9.70;;;17.50;99.90;;;;;;5063973;28;20029;-79
2021/08/28 04:32:44;;;;;;;18.30;9.50;;;17.40;99.90;;;;;;5071015;28;20040;-75
2021/08/28 04:35:10;;;;;;;21.58;9.60;;;17.50;99.90;;;;;;5069691;28;20056;-75
2021/08/28 04:37:36;;;;;;;23.98;8.85;;;17.50;99.90;;;;;;5068082;28;20055;-75
2021/08/28 04:40:02;;;;;;;17.23;9.15;;;17.50;99.90;;;;;;5078167;28;20468;-75
2021/08/28 04:42:27;;;;;;;19.90;9.35;;;17.50;99.90;;;;;;5068563;28;21331;-75
2021/08/28 04:44:54;;;;;;;21.75;10.05;;;17.40;99.90;;;;;;5067581;28;20024;-75
2021/08/28 04:47:21;;;;;;;15.38;8.55;;;17.50;99.90;;;;;;5081570;28;20385;-76
2021/08/28 04:49:48;;;;;;;15.63;8.38;;;17.40;99.90;;;;;;5068191;28;20029;-75
2021/08/28 04:52:13;;;;;;;19.88;9.68;;;17.40;99.90;;;;;;5054945;28;20040;-75
2021/08/28 04:54:40;;;;;;;20.98;10.70;;;17.40;99.90;;;;;;5064455;28;20037;-75
2021/08/28 04:57:08;;;;;;;18.25;8.70;;;17.40;99.90;;;;;;5068899;28;20550;-75
2021/08/28 04:59:33;;;;;;;20.17;11.90;;;17.40;99.90;;;;;;5070386;28;20048;-75
2021/08/28 05:02:01;;;;;;;16.83;10.35;;;17.50;99.90;;;;;;5069984;28;20450;-75
2021/08/28 05:04:26;;;;;;;22.95;11.63;;;17.50;99.90;;;;;;5064658;28;20477;-75
2021/08/28 05:06:52;;;;;;;17.05;10.30;;;17.50;99.90;;;;;;5066982;28;20036;-75
2021/08/28 05:09:18;;;;;;;20.98;10.18;;;17.50;99.90;;;;;;5076404;28;20028;-75
2021/08/28 05:11:44;;;;;;;28.30;12.68;;;17.50;99.90;;;;;;5071927;28;20700;-75
2021/08/28 05:14:10;;;;;;;21.42;11.68;;;17.50;99.90;;;;;;5076356;28;20021;-75
2021/08/28 05:16:35;;;;;;;27.30;12.57;;;17.50;99.90;;;;;;5067827;28;20036;-75
2021/08/28 05:19:01;;;;;;;25.45;12.48;;;17.50;99.90;;;;;;5065389;28;20052;-75
2021/08/28 05:21:26;;;;;;;25.83;12.75;;;17.60;99.90;;;;;;5073232;28;20029;-75
2021/08/28 05:23:52;;;;;;;21.40;11.65;;;17.60;99.90;;;;;;5070357;28;20033;-74
2021/08/28 05:26:18;;;;;;;21.95;12.80;;;17.50;99.90;;;;;;5069023;28;20028;-75
2021/08/28 05:28:43;;;;;;;22.08;12.75;;;17.60;99.90;;;;;;5067673;28;20223;-74
2021/08/28 05:31:09;;;;;;;25.77;13.02;;;17.60;99.90;;;;;;5068642;28;20055;-74
2021/08/28 05:33:35;;;;;;;25.95;14.10;;;17.60;99.90;;;;;;5076196;28;20085;-75
2021/08/28 05:36:01;;;;;;;21.90;12.55;;;17.60;99.90;;;;;;5050969;28;20103;-75
2021/08/28 05:38:26;;;;;;;25.15;12.50;;;17.60;99.90;;;;;;5069354;28;20040;-74
2021/08/28 05:40:52;;;;;;;24.30;12.07;;;17.60;99.90;;;;;;5058171;28;20028;-75
2021/08/28 05:43:18;;;;;;;20.52;11.68;;;17.60;99.90;;;;;;5064940;28;20100;-75
2021/08/28 05:45:43;;;;;;;27.35;12.57;;;17.60;99.90;;;;;;5071886;28;20032;-74
2021/08/28 05:48:09;;;;;;;24.27;11.50;;;17.70;99.90;;;;;;5056198;28;20064;-75
2021/08/28 05:50:35;;;;;;;17.05;9.73;;;17.70;99.90;;;;;;5072322;28;20066;-75
2021/08/28 05:53:00;;;;;;;22.95;12.48;;;17.70;99.90;;;;;;5067682;28;20031;-75
2021/08/28 05:55:26;;;;;;;21.75;10.93;;;17.80;99.90;;;;;;5075679;28;20060;-75
2021/08/28 05:57:51;;;;;;;21.63;10.57;;;17.70;99.90;;;;;;5042023;28;20086;-75
2021/08/28 06:00:17;;;;;;;18.95;11.57;;;17.70;99.90;;;;;;5062517;28;20029;-75
2021/08/28 06:02:43;;;;;;;21.73;11.57;;;17.80;99.90;;;;;;5065845;28;20020;-75
2021/08/28 06:05:11;;;;;;;20.65;11.48;;;17.80;99.90;;;;;;5067828;28;20036;-75
2021/08/28 06:07:37;;;;;;;21.50;10.30;;;17.90;99.90;;;;;;5065315;28;20075;-75
2021/08/28 06:10:04;;;;;;;23.92;12.10;;;17.90;99.90;;;;;;5067729;28;20025;-75
2021/08/28 06:12:30;;;;;;;23.52;12.00;;;18.00;99.90;;;;;;5064533;28;20056;-75
2021/08/28 06:14:56;;;;;;;16.55;9.90;;;18.00;99.90;;;;;;5077701;28;20103;-75
2021/08/28 06:17:22;;;;;;;20.58;10.35;;;18.00;99.90;;;;;;5068724;28;20107;-75
2021/08/28 06:19:47;;;;;;;18.58;9.85;;;18.00;99.90;;;;;;5060641;28;20090;-75
2021/08/28 06:22:13;;;;;;;20.13;12.02;;;18.00;99.90;;;;;;5070254;28;20028;-75
2021/08/28 06:24:38;;;;;;;22.27;10.45;;;18.00;99.90;;;;;;5065240;28;20036;-75
2021/08/28 06:27:04;;;;;;;21.55;9.85;;;18.00;99.90;;;;;;5067625;28;20103;-75
2021/08/28 06:29:30;;;;;;;20.60;9.73;;;18.00;99.90;;;;;;5067621;28;20032;-75
2021/08/28 06:31:56;;;;;;;22.13;11.05;;;18.00;99.90;;;;;;5068027;28;20104;-75
2021/08/28 06:34:22;;;;;;;16.80;9.18;;;18.00;99.90;;;;;;5069444;28;20029;-75
2021/08/28 06:36:48;;;;;;;21.98;10.40;;;18.00;99.90;;;;;;5065056;28;20532;-75
2021/08/28 06:39:14;;;;;;;16.60;9.70;;;18.10;99.90;;;;;;5068396;28;20147;-75
2021/08/28 06:41:39;;;;;;;19.02;10.05;;;18.10;99.90;;;;;;5062173;28;20393;-77
2021/08/28 06:44:05;;;;;;;18.50;10.68;;;18.20;99.90;;;;;;5069703;28;20073;-75
2021/08/28 06:46:31;;;;;;;16.17;8.60;;;18.20;99.90;;;;;;5069716;28;20021;-75
2021/08/28 06:48:57;;;;;;;14.02;8.18;;;18.20;99.90;;;;;;5066173;28;20028;-75
2021/08/28 06:51:23;;;;;;;17.40;9.93;;;18.20;99.90;;;;;;5050568;28;20036;-74
2021/08/28 06:53:49;;;;;;;14.23;8.82;;;18.20;99.90;;;;;;5072941;28;20404;-75
2021/08/28 06:56:16;;;;;;;12.15;7.20;;;18.20;99.90;;;;;;5067207;28;20029;-75
2021/08/28 06:58:42;;;;;;;14.85;7.03;;;18.20;99.90;;;;;;5053936;28;20033;-75
2021/08/28 07:01:08;;;;;;;13.32;7.10;;;18.20;99.90;;;;;;5072490;28;20066;-75
2021/08/28 07:03:34;;;;;;;13.35;7.40;;;18.20;99.90;;;;;;5068199;28;20033;-75
2021/08/28 07:05:59;;;;;;;12.90;7.03;;;18.20;99.90;;;;;;5064079;28;20521;-75
2021/08/28 07:08:25;;;;;;;11.57;6.50;;;18.20;99.90;;;;;;5067364;28;20020;-75
2021/08/28 07:10:51;;;;;;;11.93;7.68;;;18.20;99.90;;;;;;5066081;28;20036;-74
2021/08/28 07:13:17;;;;;;;14.55;7.80;;;18.30;99.90;;;;;;5067557;28;20051;-75
2021/08/28 07:15:43;;;;;;;11.38;6.50;;;18.40;99.90;;;;;;5065586;28;20052;-75
2021/08/28 07:18:09;;;;;;;16.48;7.35;;;18.40;99.90;;;;;;5069050;28;20044;-76
2021/08/28 07:20:35;;;;;;;11.35;6.22;;;18.30;99.90;;;;;;5067440;28;20080;-75
2021/08/28 07:23:02;;;;;;;13.38;6.72;;;18.40;99.90;;;;;;5068391;28;20013;-75
2021/08/28 07:25:27;;;;;;;14.48;6.82;;;18.40;99.90;;;;;;5070411;28;20035;-75
2021/08/28 07:27:53;;;;;;;12.75;7.45;;;18.40;99.90;;;;;;5070693;28;20040;-75
2021/08/28 07:30:19;;;;;;;9.98;6.63;;;18.40;99.90;;;;;;5074947;28;20025;-75
2021/08/28 07:32:45;;;;;;;11.70;7.07;;;18.40;99.90;;;;;;5066766;28;20389;-76
2021/08/28 07:35:10;;;;;;;11.43;6.30;;;18.30;99.90;;;;;;5054887;28;20021;-75
2021/08/28 07:37:36;;;;;;;9.93;5.95;;;18.40;99.90;;;;;;5063119;28;20063;-77
2021/08/28 07:40:03;;;;;;;9.63;6.63;;;18.30;99.90;;;;;;5068803;28;20052;-75
2021/08/28 07:42:29;;;;;;;10.35;5.60;;;18.40;99.90;;;;;;5066035;28;20051;-77
2021/08/28 07:44:54;;;;;;;10.73;5.43;;;18.40;99.90;;;;;;5068763;28;20052;-78
2021/08/28 07:47:20;;;;;;;11.70;6.28;;;18.40;99.90;;;;;;5064179;28;20539;-79
2021/08/28 07:49:46;;;;;;;9.48;6.32;;;18.40;99.90;;;;;;5067548;28;20032;-75
2021/08/28 07:52:11;;;;;;;12.45;6.15;;;18.40;99.90;;;;;;5072395;28;20020;-75
2021/08/28 07:54:37;;;;;;;10.13;5.43;;;18.30;99.90;;;;;;5062876;28;20036;-76
2021/08/28 07:57:03;;;;;;;9.23;5.40;;;18.40;99.90;;;;;;5066125;28;20066;-75
2021/08/28 07:59:29;;;;;;;11.38;5.90;;;18.40;99.90;;;;;;5074845;28;20064;-75
2021/08/28 08:01:54;;;;;;;8.43;5.47;;;18.40;99.90;;;;;;5047571;28;20476;-78
2021/08/28 08:04:20;;;;;;;8.57;5.35;;;18.40;99.90;;;;;;5062446;28;20033;-75
2021/08/28 08:06:46;;;;;;;9.57;5.45;;;18.40;99.90;;;;;;5052342;28;20166;-76
2021/08/28 08:09:11;;;;;;;11.70;5.80;;;18.50;99.90;;;;;;5062866;28;20033;-76
2021/08/28 08:11:37;;;;;;;8.75;5.00;;;18.60;99.90;;;;;;5052099;28;20025;-75
2021/08/28 08:14:03;;;;;;;11.25;5.72;;;18.70;99.90;;;;;;5067699;28;20528;-76
2021/08/28 08:16:29;;;;;;;11.15;4.90;;;18.80;99.90;;;;;;5049159;28;20474;-76
2021/08/28 08:18:55;;;;;;;28.50;7.88;;;18.80;99.90;;;;;;5064763;28;20476;-76
2021/08/28 08:21:21;;;;;;;11.90;5.93;;;18.80;99.90;;;;;;5069881;28;20119;-76
2021/08/28 08:23:46;;;;;;;12.48;5.55;;;18.90;99.90;;;;;;5063498;28;20024;-76
2021/08/28 08:26:12;;;;;;;11.45;4.53;;;18.90;99.90;;;;;;5065012;28;20043;-76
2021/08/28 08:28:38;;;;;;;12.30;4.93;;;18.80;99.90;;;;;;5068404;28;20280;-78
2021/08/28 08:31:04;;;;;;;10.70;5.22;;;18.90;99.90;;;;;;5066987;28;20033;-77
2021/08/28 08:33:30;;;;;;;8.05;5.30;;;19.00;99.90;;;;;;5064104;28;20086;-78
2021/08/28 08:35:55;;;;;;;8.65;4.57;;;19.00;99.90;;;;;;5067165;28;20492;-77
2021/08/28 08:38:21;;;;;;;9.93;5.50;;;19.10;99.90;;;;;;5064725;28;20032;-76
2021/08/28 08:40:50;;;;;;;8.80;5.18;;;19.20;99.90;;;;;;5073586;28;20175;-78
2021/08/28 08:43:16;;;;;;;8.20;5.63;;;19.10;99.90;;;;;;5060574;28;20037;-77
2021/08/28 08:45:44;;;;;;;7.80;5.78;;;19.20;99.90;;;;;;5069855;28;20479;-78
2021/08/28 08:48:11;;;;;;;8.32;6.13;;;19.30;99.90;;;;;;5066976;28;20447;-75
2021/08/28 08:50:37;;;;;;;9.90;4.90;;;19.30;99.90;;;;;;5063817;28;20025;-76
2021/08/28 08:53:05;;;;;;;8.07;5.45;;;19.20;99.90;;;;;;5069008;28;20055;-75
2021/08/28 08:55:32;;;;;;;8.65;5.47;;;19.20;99.90;;;;;;5067486;28;20033;-75
2021/08/28 08:57:59;;;;;;;10.07;5.32;;;19.20;99.90;;;;;;5073851;28;20036;-75
2021/08/28 09:00:26;;;;;;;8.23;5.00;;;19.20;99.90;;;;;;5065582;28;20529;-75
2021/08/28 09:02:51;;;;;;;7.47;4.75;;;19.20;99.90;;;;;;5064930;28;20110;-75
2021/08/28 09:05:18;;;;;;;9.18;5.50;;;19.10;99.90;;;;;;5063402;28;20105;-76
2021/08/28 09:07:43;;;;;;;6.68;5.30;;;19.20;99.90;;;;;;5071440;28;20024;-75
2021/08/28 09:10:12;;;;;;;7.13;5.07;;;19.30;99.90;;;;;;5071390;28;20028;-75
2021/08/28 09:12:40;;;;;;;5.65;4.80;;;19.30;99.90;;;;;;5056650;28;20426;-75
2021/08/28 09:15:11;;;;;;;8.70;4.78;;;19.40;99.90;;;;;;5071063;28;20017;-75
2021/08/28 09:17:38;;;;;;;13.00;5.47;;;19.50;99.90;;;;;;5074196;28;20033;-75
2021/08/28 09:20:20;;;;;;;8.57;5.18;;;19.60;99.90;;;;;;5068140;28;20032;-75
2021/08/28 09:22:46;;;;;;;11.23;5.55;;;19.60;99.90;;;;;;5068045;28;20027;-75
2021/08/28 09:25:20;;;;;;;9.00;5.45;;;19.60;99.90;;;;;;5065629;28;20100;-75
2021/08/28 09:27:47;;;;;;;8.02;5.05;;;19.70;99.90;;;;;;5056536;28;20119;-75
2021/08/28 09:30:19;;;;;;;13.50;5.18;;;19.80;99.90;;;;;;5074566;28;20021;-76
2021/08/28 09:32:58;;;;;;;8.07;5.32;;;19.90;99.90;;;;;;5065167;28;20025;-75
2021/08/28 09:35:26;;;;;;;9.27;5.38;;;19.90;99.90;;;;;;5054274;28;20466;-75
2021/08/28 09:37:58;;;;;;;11.25;5.40;;;20.00;99.90;;;;;;5068819;28;20017;-75
2021/08/28 09:40:26;;;;;;;9.82;5.18;;;20.10;99.90;;;;;;5065141;28;20072;-76
2021/08/28 09:42:57;;;;;;;10.10;5.00;;;20.10;99.90;;;;;;5070374;28;20017;-75
2021/08/28 09:45:25;;;;;;;9.90;4.45;;;20.20;99.90;;;;;;5071120;28;20033;-75
2021/08/28 09:47:53;;;;;;;8.95;5.88;;;20.30;99.90;;;;;;5075721;28;20078;-74
2021/08/28 09:50:36;;;;;;;8.38;5.25;;;20.30;99.90;;;;;;5063787;28;20020;-74
2021/08/28 09:53:09;;;;;;;7.60;4.65;;;20.30;99.90;;;;;;5063129;28;20476;-75
2021/08/28 09:55:37;;;;;;;6.60;4.47;;;20.30;99.90;;;;;;5068266;28;20029;-74
2021/08/28 09:58:04;;;;;;;11.23;5.65;;;20.20;99.90;;;;;;5061812;28;20032;-74
2021/08/28 10:00:31;;;;;;;8.50;5.07;;;20.20;99.90;;;;;;5070331;28;20028;-74
2021/08/28 10:03:06;;;;;;;10.20;5.10;;;20.10;99.90;;;;;;5057495;28;20021;-74
2021/08/28 10:05:36;;;;;;;8.70;5.25;;;20.20;99.90;;;;;;5068739;28;20050;-75
2021/08/28 10:08:07;;;;;;;7.90;4.65;;;20.40;99.90;;;;;;5070704;28;20029;-75
2021/08/28 10:10:37;;;;;;;10.63;4.70;;;20.60;99.90;;;;;;5068513;28;20025;-76
2021/08/28 10:13:04;;;;;;;7.13;5.20;;;20.60;99.90;;;;;;5065794;28;20024;-74
2021/08/28 10:15:31;;;;;;;7.13;5.53;;;20.50;99.90;;;;;;5066978;28;20496;-75
2021/08/28 10:17:58;;;;;;;10.40;5.50;;;20.60;99.90;;;;;;5067923;28;20029;-75
2021/08/28 10:20:27;;;;;;;8.90;4.55;;;20.70;99.90;;;;;;5072021;28;20102;-74
2021/08/28 10:22:55;;;;;;;6.75;5.00;;;20.70;99.90;;;;;;5073246;28;20052;-75
2021/08/28 10:25:24;;;;;;;12.35;5.28;;;20.80;99.90;;;;;;5057765;28;20074;-75
2021/08/28 10:27:50;;;;;;;8.25;5.50;;;20.70;99.90;;;;;;5073880;28;20427;-75
2021/08/28 10:30:18;;;;;;;8.85;5.40;;;20.60;99.90;;;;;;5063762;28;20027;-75
2021/08/28 10:32:44;;;;;;;9.27;5.63;;;20.60;99.90;;;;;;5067572;28;20111;-75
2021/08/28 10:35:12;;;;;;;9.98;5.55;;;20.70;99.90;;;;;;5072157;28;20091;-75
2021/08/28 10:37:38;;;;;;;8.73;5.93;;;20.70;99.90;;;;;;5060649;28;20385;-75
2021/08/28 10:40:25;;;;;;;10.13;5.50;;;20.80;99.90;;;;;;5062493;28;20029;-75
2021/08/28 10:42:57;;;;;;;7.65;4.90;;;20.80;99.90;;;;;;5048165;28;20025;-74
2021/08/28 10:45:36;;;;;;;9.60;6.45;;;20.90;99.90;;;;;;5063771;28;20060;-75
2021/08/28 10:48:04;;;;;;;8.50;5.35;;;20.90;99.90;;;;;;5064801;28;20064;-75
2021/08/28 10:50:33;;;;;;;9.73;5.82;;;21.10;99.90;;;;;;5062775;28;20099;-74
2021/08/28 10:53:00;;;;;;;7.70;5.57;;;21.30;99.90;;;;;;5062166;28;20028;-75
2021/08/28 10:55:56;;;;;;;7.10;4.95;;;21.40;99.90;;;;;;5074964;28;20424;-74
2021/08/28 10:58:24;;;;;;;10.68;4.93;;;21.50;99.90;;;;;;5058977;28;20047;-75
2021/08/28 11:00:55;;;;;;;8.68;5.35;;;21.50;99.90;;;;;;5066818;28;20029;-74
2021/08/28 11:03:32;;;;;;;6.70;5.53;;;21.80;99.90;;;;;;5069661;28;20052;-76
2021/08/28 11:06:15;;;;;;;8.38;5.38;;;21.70;99.90;;;;;;5069366;28;20021;-75
2021/08/28 11:08:53;;;;;;;8.93;5.43;;;21.70;99.90;;;;;;5072764;28;20054;-75
2021/08/28 11:11:40;;;;;;;7.07;4.63;;;21.80;99.90;;;;;;5066271;28;20603;-76
2021/08/28 11:14:11;;;;;;;8.20;4.63;;;22.10;99.90;;;;;;5050694;28;20025;-75
2021/08/28 11:16:39;;;;;;;5.97;4.97;;;22.00;99.90;;;;;;5064576;28;20031;-75
2021/08/28 11:19:06;;;;;;;8.63;5.28;;;22.10;99.90;;;;;;5063600;28;20393;-75
2021/08/28 11:21:42;;;;;;;6.05;4.53;;;22.30;99.90;;;;;;5067886;28;20039;-75
2021/08/28 11:24:16;;;;;;;6.72;4.35;;;22.50;99.90;;;;;;5068426;28;20056;-76
2021/08/28 11:26:42;;;;;;;7.82;4.70;;;22.60;99.90;;;;;;5066285;28;20363;-75
2021/08/28 11:29:32;;;;;;;5.63;4.90;;;22.80;99.90;;;;;;5068077;28;20531;-74
2021/08/28 11:32:06;;;;;;;5.60;4.97;;;22.60;99.90;;;;;;5068026;28;20021;-74
2021/08/28 11:34:32;;;;;;;10.18;5.10;;;22.80;99.90;;;;;;5065509;28;20457;-75
2021/08/28 11:37:25;;;;;;;11.30;5.13;;;23.00;99.90;;;;;;5070992;28;20036;-75
2021/08/28 11:39:52;;;;;;;8.40;5.10;;;23.10;99.90;;;;;;5064991;28;20070;-75
2021/08/28 11:42:18;;;;;;;5.80;5.20;;;22.80;99.90;;;;;;5066681;28;20020;-74
2021/08/28 11:44:48;;;;;;;7.60;5.07;;;22.60;99.90;;;;;;5072480;28;20036;-74
2021/08/28 11:47:13;;;;;;;8.48;5.25;;;22.50;99.90;;;;;;5070878;28;20029;-75
2021/08/28 11:49:39;;;;;;;6.25;4.97;;;22.60;99.90;;;;;;5068416;28;20035;-74
2021/08/28 11:52:06;;;;;;;7.38;4.38;;;22.70;99.90;;;;;;5067468;28;20013;-75
2021/08/28 11:54:32;;;;;;;7.07;4.53;;;22.90;99.90;;;;;;5067874;28;20041;-75
2021/08/28 11:56:58;;;;;;;5.03;4.38;;;23.00;99.90;;;;;;5063716;28;20362;-74
2021/08/28 11:59:39;;;;;;;6.38;4.15;;;23.20;99.90;;;;;;5063535;28;20044;-74
2021/08/28 12:02:06;;;;;;;5.20;4.05;;;23.20;99.90;;;;;;5066531;28;20028;-74
2021/08/28 12:04:33;;;;;;;4.93;4.05;;;23.50;99.90;;;;;;5069073;28;20020;-75
2021/08/28 12:07:00;;;;;;;6.20;4.43;;;23.60;99.90;;;;;;5056650;28;20035;-74
2021/08/28 12:09:26;;;;;;;7.75;4.72;;;23.60;99.90;;;;;;5057987;28;20052;-75
2021/08/28 12:11:54;;;;;;;6.75;4.57;;;23.60;99.90;;;;;;5068118;28;20531;-74
2021/08/28 12:14:21;;;;;;;6.05;4.53;;;23.40;99.90;;;;;;5060150;28;20052;-74
2021/08/28 12:16:47;;;;;;;9.20;4.70;;;23.20;99.90;;;;;;5069353;28;20107;-74
2021/08/28 12:19:25;;;;;;;6.15;4.60;;;22.90;99.90;;;;;;5068345;28;20036;-74
2021/08/28 12:21:51;;;;;;;4.78;4.03;;;22.70;99.90;;;;;;5073208;28;20013;-74
2021/08/28 12:24:32;;;;;;;5.03;4.53;;;22.50;99.90;;;;;;5068561;28;20116;-75
2021/08/28 12:27:04;;;;;;;8.02;5.38;;;22.50;99.90;;;;;;5067083;28;20043;-75
2021/08/28 12:29:33;;;;;;;4.82;3.92;;;22.60;99.90;;;;;;5072130;28;20039;-75
2021/08/28 12:32:20;;;;;;;4.40;3.90;;;22.70;99.90;;;;;;5064532;28;20155;-83
2021/08/28 12:34:48;;;;;;;4.90;4.32;;;22.60;99.90;;;;;;5069018;28;20024;-82
2021/08/28 12:37:17;;;;;;;6.88;4.20;;;22.80;99.90;;;;;;5073334;28;20025;-82
2021/08/28 12:39:47;;;;;;;6.72;4.15;;;23.10;99.90;;;;;;5070258;28;20550;-78
2021/08/28 12:42:15;;;;;;;5.75;4.55;;;23.30;99.90;;;;;;5072174;28;20021;-80